createdAt,value
2018-07-24T00:02:45.455Z,8.80
2018-07-24T00:06:49.207Z,9.10
2018-07-24T00:10:53.100Z,10.73
2018-07-24T00:14:57.013Z,10.07
2018-07-24T00:19:00.856Z,10.47
2018-07-24T00:23:04.538Z,10.13
2018-07-24T00:27:08.043Z,10.37
2018-07-24T00:31:11.807Z,11.30
2018-07-24T00:35:15.883Z,11.50
2018-07-24T00:39:19.753Z,11.10
2018-07-24T00:43:23.599Z,10.87
2018-07-24T00:47:27.288Z,12.20
2018-07-24T00:51:30.998Z,12.73
2018-07-24T00:55:34.907Z,12.47
2018-07-24T00:59:38.755Z,13.90
2018-07-24T01:03:42.526Z,12.20
2018-07-24T01:07:46.030Z,12.67
2018-07-24T01:11:49.799Z,12.30
2018-07-24T01:15:53.650Z,12.70
2018-07-24T01:19:57.555Z,12.13
2018-07-24T01:24:01.399Z,15.80
2018-07-24T01:28:05.062Z,14.37
2018-07-24T01:32:08.574Z,14.63
2018-07-24T01:36:12.608Z,14.40
2018-07-24T01:40:16.461Z,13.67
2018-07-24T01:44:20.154Z,14.97
2018-07-24T01:48:23.884Z,15.23
2018-07-24T01:52:28.099Z,18.17
2018-07-24T01:56:31.972Z,15.80
2018-07-24T02:00:35.925Z,16.47
2018-07-24T02:04:39.772Z,17.80
2018-07-24T02:08:43.684Z,17.00
2018-07-24T02:12:47.537Z,19.20
2018-07-24T02:16:51.232Z,17.70
2018-07-24T02:20:54.962Z,19.20
2018-07-24T02:24:58.878Z,18.30
2018-07-24T02:29:02.728Z,19.97
2018-07-24T02:33:06.419Z,18.07
2018-07-24T02:37:10.652Z,17.77
2018-07-24T02:41:14.355Z,18.40
2018-07-24T02:45:18.087Z,18.50
2018-07-24T02:49:22.053Z,19.27
2018-07-24T02:53:25.907Z,18.90
2018-07-24T02:57:29.606Z,19.40
2018-07-24T03:01:33.123Z,18.83
2018-07-24T03:05:36.887Z,16.93
2018-07-24T03:09:40.756Z,17.67
2018-07-24T03:13:44.648Z,17.33
2018-07-24T03:17:48.280Z,18.90
2018-07-24T03:21:52.181Z,17.60
2018-07-24T03:25:56.040Z,18.20
2018-07-24T03:29:59.952Z,17.10
2018-07-24T03:34:03.603Z,18.10
2018-07-24T03:38:07.587Z,20.20
2018-07-24T03:42:11.449Z,21.03
2018-07-24T03:46:15.320Z,20.83
2018-07-24T03:50:19.316Z,20.77
2018-07-24T03:54:23.297Z,22.00
2018-07-24T03:58:27.140Z,22.23
2018-07-24T04:02:31.027Z,19.40
2018-07-24T04:06:34.927Z,17.40
2018-07-24T04:10:38.911Z,15.77
2018-07-24T04:14:42.755Z,19.30
2018-07-24T04:18:48.420Z,18.83
2018-07-24T04:22:52.272Z,22.80
2018-07-24T04:26:56.177Z,22.13
2018-07-24T04:31:00.102Z,21.80
2018-07-24T04:35:03.844Z,24.27
2018-07-24T04:39:08.299Z,23.17
2018-07-24T04:43:12.193Z,24.77
2018-07-24T04:47:15.843Z,24.77
2018-07-24T04:51:19.652Z,25.73
2018-07-24T04:55:23.497Z,24.70
2018-07-24T04:59:27.391Z,27.60
2018-07-24T05:03:31.035Z,26.07
2018-07-24T05:07:34.599Z,24.53
2018-07-24T05:11:38.115Z,21.17
2018-07-24T05:15:41.661Z,19.30
2018-07-24T05:19:45.195Z,20.50
2018-07-24T05:23:49.086Z,19.37
2018-07-24T05:27:52.928Z,23.07
2018-07-24T05:31:56.716Z,21.53
2018-07-24T05:36:00.443Z,22.83
2018-07-24T05:40:04.536Z,23.80
2018-07-24T05:44:08.499Z,25.80
2018-07-24T05:48:12.524Z,26.97
2018-07-24T05:52:16.400Z,25.60
2018-07-24T05:56:20.312Z,25.60
2018-07-24T06:00:24.700Z,28.37
2018-07-24T06:04:28.672Z,25.73
2018-07-24T06:08:32.529Z,27.37
2018-07-24T06:12:36.295Z,26.40
2018-07-24T06:16:40.066Z,25.87
2018-07-24T06:20:43.955Z,28.73
2018-07-24T06:24:47.817Z,31.50
2018-07-24T06:28:51.527Z,26.47
2018-07-24T06:32:55.043Z,23.33
2018-07-24T06:36:58.610Z,19.17
2018-07-24T06:41:02.468Z,18.70
2018-07-24T06:45:06.377Z,16.87
2018-07-24T06:49:10.243Z,17.77
2018-07-24T06:53:14.027Z,16.77
2018-07-24T06:57:17.767Z,16.83
2018-07-24T07:01:21.657Z,16.47
2018-07-24T07:05:25.512Z,13.83
2018-07-24T07:09:29.184Z,14.60
2018-07-24T07:13:32.749Z,12.77
2018-07-24T07:17:36.552Z,12.90
2018-07-24T07:21:40.204Z,16.27
2018-07-24T07:25:43.979Z,16.60
2018-07-24T07:29:47.636Z,16.43
2018-07-24T07:33:51.403Z,14.03
2018-07-24T07:37:55.267Z,13.57
2018-07-24T07:41:59.395Z,13.13
2018-07-24T07:46:03.028Z,12.93
2018-07-24T07:50:06.568Z,12.67
2018-07-24T07:54:10.300Z,10.63
2018-07-24T07:58:14.088Z,10.73
2018-07-24T08:02:17.831Z,9.10
2018-07-24T08:06:21.524Z,8.07
2018-07-24T08:10:25.033Z,7.53
2018-07-24T08:14:28.812Z,6.87
2018-07-24T08:18:32.659Z,6.23
2018-07-24T08:22:36.543Z,5.70
2018-07-24T08:26:40.258Z,5.87
2018-07-24T08:30:44.016Z,5.80
2018-07-24T08:34:47.896Z,5.27
2018-07-24T08:38:51.612Z,5.40
2018-07-24T08:42:55.460Z,7.13
2018-07-24T08:46:59.127Z,5.97
2018-07-24T08:51:02.640Z,5.60
2018-07-24T08:55:06.483Z,4.57
2018-07-24T08:59:09.723Z,4.47
2018-07-24T09:03:13.587Z,4.43
2018-07-24T09:07:17.375Z,4.43
2018-07-24T09:11:21.440Z,4.23
2018-07-24T09:15:25.306Z,3.57
2018-07-24T09:19:30.171Z,4.00
2018-07-24T09:23:34.022Z,4.10
2018-07-24T09:27:37.777Z,4.70
2018-07-24T09:31:41.517Z,4.77
2018-07-24T09:35:45.203Z,5.10
2018-07-24T09:39:48.936Z,4.00
2018-07-24T09:43:53.088Z,4.33
2018-07-24T09:47:56.958Z,4.43
2018-07-24T09:52:00.852Z,4.53
2018-07-24T09:56:04.507Z,4.40
2018-07-24T10:00:08.247Z,4.13
2018-07-24T10:04:12.000Z,4.40
2018-07-24T10:08:15.900Z,4.40
2018-07-24T10:12:19.760Z,4.50
2018-07-24T10:16:23.708Z,5.27
2018-07-24T10:20:27.325Z,5.17
2018-07-24T10:24:31.285Z,4.30
2018-07-24T10:28:34.923Z,4.70
2018-07-24T10:32:38.784Z,4.60
2018-07-24T10:36:42.635Z,4.90
2018-07-24T10:40:46.380Z,4.57
2018-07-24T10:44:50.292Z,4.50
2018-07-24T10:48:54.208Z,4.43
2018-07-24T10:52:57.834Z,4.23
2018-07-24T10:57:01.585Z,4.13
2018-07-24T11:01:05.216Z,4.40
2018-07-24T11:05:08.815Z,4.10
2018-07-24T11:09:12.481Z,4.27
2018-07-24T11:13:16.480Z,4.27
2018-07-24T11:17:20.342Z,3.93
2018-07-24T11:21:24.115Z,4.20
2018-07-24T11:25:27.863Z,4.37
2018-07-24T11:29:31.815Z,4.53
2018-07-24T11:33:35.632Z,4.60
2018-07-24T11:37:39.418Z,4.57
2018-07-24T11:41:43.057Z,4.10
2018-07-24T11:45:46.948Z,3.73
2018-07-24T11:49:50.676Z,4.57
2018-07-24T11:53:54.623Z,3.80
2018-07-24T11:57:58.453Z,4.10
2018-07-24T12:02:02.141Z,4.73
2018-07-24T12:06:05.863Z,4.00
2018-07-24T12:10:09.758Z,4.33
2018-07-24T12:14:13.613Z,4.30
2018-07-24T12:18:17.271Z,3.87
2018-07-24T12:22:20.788Z,4.10
2018-07-24T12:26:24.338Z,4.23
2018-07-24T12:30:28.060Z,4.57
2018-07-24T12:34:31.936Z,4.87
2018-07-24T12:38:35.594Z,4.93
2018-07-24T12:42:39.452Z,4.40
2018-07-24T12:46:43.568Z,4.43
2018-07-24T12:50:47.548Z,4.30
2018-07-24T12:54:51.400Z,4.50
2018-07-24T12:58:55.155Z,4.70
2018-07-24T13:02:58.674Z,4.10
2018-07-24T13:07:02.548Z,4.33
2018-07-24T13:11:06.328Z,3.77
2018-07-24T13:15:10.128Z,4.57
2018-07-24T13:19:13.978Z,4.87
2018-07-24T13:23:17.675Z,4.63
2018-07-24T13:27:21.404Z,4.73
2018-07-24T13:31:25.340Z,4.47
2018-07-24T13:35:29.274Z,4.70
2018-07-24T13:39:32.920Z,4.30
2018-07-24T13:43:36.434Z,4.60
2018-07-24T13:47:40.304Z,4.27
2018-07-24T13:51:43.938Z,4.80
2018-07-24T13:55:47.704Z,4.47
2018-07-24T13:59:51.343Z,4.50
2018-07-24T14:03:54.896Z,4.50
2018-07-24T14:07:58.615Z,4.60
2018-07-24T14:12:02.574Z,5.10
2018-07-24T14:16:06.304Z,5.03
2018-07-24T14:20:09.855Z,4.50
2018-07-24T14:24:13.595Z,5.20
2018-07-24T14:28:17.276Z,4.60
2018-07-24T14:32:20.815Z,4.83
2018-07-24T14:36:24.454Z,5.67
2018-07-24T14:40:28.255Z,5.57
2018-07-24T14:44:32.064Z,5.53
2018-07-24T14:48:36.031Z,6.37
2018-07-24T14:52:39.750Z,5.70
2018-07-24T14:56:43.452Z,5.80
2018-07-24T15:00:47.349Z,6.00
2018-07-24T15:04:51.294Z,6.30
2018-07-24T15:08:54.954Z,5.30
2018-07-24T15:12:58.479Z,5.00
2018-07-24T15:17:02.283Z,5.60
2018-07-24T15:21:05.924Z,5.93
2018-07-24T15:25:09.784Z,6.17
2018-07-24T15:29:13.426Z,5.53
2018-07-24T15:33:17.003Z,5.43
2018-07-24T15:37:20.721Z,6.37
2018-07-24T15:41:24.685Z,6.23
2018-07-24T15:45:28.255Z,5.40
2018-07-24T15:49:32.224Z,5.77
2018-07-24T15:53:35.961Z,6.10
2018-07-24T15:57:40.009Z,5.67
2018-07-24T16:01:43.572Z,7.43
2018-07-24T16:05:47.364Z,6.70
2018-07-24T16:09:50.994Z,5.97
2018-07-24T16:13:54.781Z,6.47
2018-07-24T16:17:58.644Z,6.13
2018-07-24T16:22:02.553Z,6.70
2018-07-24T16:26:06.423Z,6.63
2018-07-24T16:30:10.107Z,7.10
2018-07-24T16:34:13.616Z,7.17
2018-07-24T16:38:17.209Z,7.07
2018-07-24T16:42:20.935Z,6.10
2018-07-24T16:46:24.608Z,6.33
2018-07-24T16:50:28.246Z,6.90
2018-07-24T16:54:32.167Z,6.03
2018-07-24T16:58:36.063Z,5.50
2018-07-24T17:02:40.016Z,5.03
2018-07-24T17:06:43.591Z,5.37
2018-07-24T17:10:47.575Z,5.83
2018-07-24T17:14:51.564Z,6.40
2018-07-24T17:18:55.456Z,5.23
2018-07-24T17:22:59.101Z,5.60
2018-07-24T17:27:02.683Z,5.50
2018-07-24T17:31:06.900Z,5.70
2018-07-24T17:35:10.769Z,7.10
2018-07-24T17:39:14.390Z,6.40
2018-07-24T17:43:18.248Z,6.30
2018-07-24T17:47:22.090Z,7.10
2018-07-24T17:51:25.871Z,7.13
2018-07-24T17:55:29.627Z,6.53
2018-07-24T17:59:33.553Z,6.87
2018-07-24T18:03:37.387Z,7.17
2018-07-24T18:07:41.127Z,7.40
2018-07-24T18:11:44.636Z,6.97
2018-07-24T18:15:48.489Z,6.90
2018-07-24T18:19:52.076Z,7.47
2018-07-24T18:23:55.839Z,7.27
2018-07-24T18:27:59.667Z,8.30
2018-07-24T18:32:03.367Z,8.23
2018-07-24T18:36:07.078Z,7.67
2018-07-24T18:40:11.600Z,7.77
2018-07-24T18:44:15.426Z,7.73
2018-07-24T18:48:19.327Z,7.97
2018-07-24T18:52:23.076Z,7.67
2018-07-24T18:56:26.615Z,8.73
2018-07-24T19:00:30.111Z,8.87
2018-07-24T19:04:33.880Z,7.67
2018-07-24T19:08:37.724Z,8.30
2018-07-24T19:12:41.632Z,8.07
2018-07-24T19:16:45.268Z,8.63
2018-07-24T19:20:49.055Z,8.00
2018-07-24T19:24:52.895Z,9.00
2018-07-24T19:28:56.789Z,9.43
2018-07-24T19:33:00.412Z,8.37
2018-07-24T19:37:04.196Z,9.27
2018-07-24T19:41:08.049Z,8.67
2018-07-24T19:45:11.936Z,8.63
2018-07-24T19:49:15.774Z,8.80
2018-07-24T19:53:19.772Z,7.20
2018-07-24T19:57:23.611Z,10.20
2018-07-24T20:01:27.380Z,9.40
2018-07-24T20:05:31.104Z,11.37
2018-07-24T20:09:35.123Z,13.30
2018-07-24T20:13:38.970Z,11.27
2018-07-24T20:17:42.873Z,12.10
2018-07-24T20:21:46.729Z,11.20
2018-07-24T20:25:50.651Z,11.57
2018-07-24T20:29:54.293Z,10.93
2018-07-24T20:33:58.125Z,12.90
2018-07-24T20:38:02.059Z,12.50
2018-07-24T20:42:05.956Z,12.07
2018-07-24T20:46:09.587Z,12.57
2018-07-24T20:50:13.115Z,10.63
2018-07-24T20:54:16.878Z,9.50
2018-07-24T20:58:20.572Z,13.20
2018-07-24T21:02:24.305Z,11.53
2018-07-24T21:06:28.300Z,11.10
2018-07-24T21:10:32.153Z,11.23
2018-07-24T21:14:36.136Z,12.30
2018-07-24T21:18:39.977Z,9.97
2018-07-24T21:22:43.859Z,11.33
2018-07-24T21:26:47.713Z,10.60
2018-07-24T21:30:51.375Z,10.43
2018-07-24T21:34:55.275Z,9.47
2018-07-24T21:38:59.180Z,10.30
2018-07-24T21:43:02.815Z,9.17
2018-07-24T21:47:06.567Z,8.93
2018-07-24T21:51:10.201Z,8.33
2018-07-24T21:55:14.012Z,11.63
2018-07-24T21:59:17.655Z,11.70
2018-07-24T22:03:21.431Z,11.63
2018-07-24T22:07:25.288Z,10.77
2018-07-24T22:11:29.177Z,9.50
2018-07-24T22:15:32.823Z,11.20
2018-07-24T22:19:36.696Z,12.03
2018-07-24T22:23:40.556Z,11.23
2018-07-24T22:27:44.271Z,10.80
2018-07-24T22:31:48.008Z,11.50
2018-07-24T22:35:51.896Z,11.60
2018-07-24T22:39:55.739Z,12.50
2018-07-24T22:43:59.647Z,13.03
2018-07-24T22:48:03.524Z,12.30
2018-07-24T22:52:07.508Z,11.23
2018-07-24T22:56:11.215Z,11.40
2018-07-24T23:00:14.977Z,11.23
2018-07-24T23:04:18.825Z,13.57
2018-07-24T23:12:21.991Z,12.90
2018-07-24T23:16:25.837Z,11.53
2018-07-24T23:20:29.792Z,12.60
2018-07-24T23:24:33.643Z,12.77
2018-07-24T23:28:37.625Z,12.63
2018-07-24T23:32:41.463Z,12.47
2018-07-24T23:36:49.292Z,14.00
2018-07-24T23:40:52.932Z,13.87
2018-07-24T23:44:56.680Z,13.90
2018-07-24T23:49:00.548Z,14.03
2018-07-24T23:53:04.431Z,14.57
2018-07-24T23:57:08.332Z,14.70
